createdAt,value
2019-05-05T00:02:27.267Z,3.70
2019-05-05T00:05:15.608Z,4.00
2019-05-05T00:07:46.192Z,3.40
2019-05-05T00:10:25.373Z,3.90
2019-05-05T00:13:15.003Z,3.37
2019-05-05T00:16:15.193Z,3.90
2019-05-05T00:18:46.159Z,3.80
2019-05-05T00:21:16.572Z,3.10
2019-05-05T00:23:47.162Z,3.77
2019-05-05T00:26:17.535Z,3.60
2019-05-05T00:28:48.161Z,3.47
2019-05-05T00:31:18.544Z,3.63
2019-05-05T00:33:49.117Z,4.27
2019-05-05T00:36:19.523Z,4.70
2019-05-05T00:38:50.111Z,3.90
2019-05-05T00:41:20.543Z,4.70
2019-05-05T00:43:51.367Z,4.30
2019-05-05T00:46:27.731Z,3.87
2019-05-05T00:48:58.165Z,4.37
2019-05-05T00:51:28.566Z,4.03
2019-05-05T00:53:59.207Z,4.03
2019-05-05T00:56:29.620Z,3.80
2019-05-05T00:59:04.577Z,4.40
2019-05-05T01:01:48.898Z,4.00
2019-05-05T01:04:24.607Z,4.03
2019-05-05T01:06:55.097Z,4.00
2019-05-05T01:09:28.443Z,4.37
2019-05-05T01:11:59.117Z,4.27
2019-05-05T01:14:29.734Z,4.07
2019-05-05T01:17:00.323Z,3.90
2019-05-05T01:19:30.707Z,4.20
2019-05-05T01:22:01.149Z,3.80
2019-05-05T01:24:31.542Z,3.90
2019-05-05T01:27:04.109Z,4.03
2019-05-05T01:29:34.736Z,4.93
2019-05-05T01:32:07.401Z,5.70
2019-05-05T01:34:44.348Z,4.13
2019-05-05T01:37:21.848Z,4.33
2019-05-05T01:40:04.960Z,4.93
2019-05-05T01:42:35.501Z,4.30
2019-05-05T01:45:06.085Z,4.27
2019-05-05T01:47:36.525Z,5.00
2019-05-05T01:50:17.733Z,5.30
2019-05-05T01:52:39.959Z,4.90
2019-05-05T01:55:10.563Z,4.30
2019-05-05T01:57:41.207Z,4.27
2019-05-05T02:00:12.284Z,5.00
2019-05-05T02:02:44.730Z,4.90
2019-05-05T02:05:15.425Z,4.80
2019-05-05T02:07:45.874Z,4.60
2019-05-05T02:10:16.494Z,4.67
2019-05-05T02:12:47.055Z,4.40
2019-05-05T02:15:17.692Z,4.87
2019-05-05T02:17:48.060Z,5.00
2019-05-05T02:21:01.893Z,4.90
2019-05-05T02:23:32.576Z,5.17
2019-05-05T02:26:04.611Z,5.57
2019-05-05T02:28:55.115Z,5.00
2019-05-05T02:31:35.802Z,5.27
2019-05-05T02:34:05.579Z,4.80
2019-05-05T02:36:36.046Z,5.50
2019-05-05T02:39:09.900Z,5.70
2019-05-05T02:41:41.670Z,5.60
2019-05-05T02:44:15.510Z,6.00
2019-05-05T02:46:55.218Z,5.13
2019-05-05T02:49:26.274Z,6.07
2019-05-05T02:51:57.114Z,5.33
2019-05-05T02:54:27.793Z,5.40
2019-05-05T02:56:58.331Z,5.10
2019-05-05T02:59:40.638Z,5.10
2019-05-05T03:02:14.483Z,5.10
2019-05-05T03:04:46.675Z,6.10
2019-05-05T03:07:18.476Z,5.27
2019-05-05T03:09:50.673Z,5.60
2019-05-05T03:12:24.292Z,5.27
2019-05-05T03:14:57.731Z,6.07
2019-05-05T03:17:28.340Z,5.63
2019-05-05T03:19:58.906Z,5.83
2019-05-05T03:22:29.537Z,6.40
2019-05-05T03:25:00.695Z,6.77
2019-05-05T03:27:31.366Z,5.63
2019-05-05T03:30:04.737Z,5.77
2019-05-05T03:32:35.965Z,5.50
2019-05-05T03:35:06.885Z,5.57
2019-05-05T03:37:37.984Z,5.30
2019-05-05T03:40:15.595Z,6.00
2019-05-05T03:43:04.210Z,6.20
2019-05-05T03:45:53.845Z,5.83
2019-05-05T03:48:24.629Z,6.27
2019-05-05T03:50:55.344Z,5.70
2019-05-05T03:53:26.698Z,6.40
2019-05-05T03:55:57.323Z,6.17
2019-05-05T03:58:28.910Z,8.43
2019-05-05T04:01:55.955Z,8.03
2019-05-05T04:04:33.557Z,8.60
2019-05-05T04:07:04.881Z,7.70
2019-05-05T04:09:35.566Z,7.90
2019-05-05T04:12:06.100Z,7.67
2019-05-05T04:14:36.527Z,7.63
2019-05-05T04:17:16.193Z,8.03
2019-05-05T04:19:49.119Z,9.70
2019-05-05T04:22:19.559Z,8.53
2019-05-05T04:24:50.010Z,9.07
2019-05-05T04:27:20.396Z,9.77
2019-05-05T04:29:50.848Z,10.67
2019-05-05T04:32:21.233Z,10.83
2019-05-05T04:34:51.695Z,10.40
2019-05-05T04:37:23.948Z,9.93
2019-05-05T04:39:54.254Z,9.97
2019-05-05T04:42:24.692Z,8.73
2019-05-05T04:44:55.086Z,9.70
2019-05-05T04:47:29.584Z,7.67
2019-05-05T04:50:14.627Z,9.47
2019-05-05T04:52:46.016Z,9.13
2019-05-05T04:55:16.439Z,9.47
2019-05-05T04:57:46.876Z,11.00
2019-05-05T05:00:18.036Z,8.53
2019-05-05T05:03:06.021Z,8.43
2019-05-05T05:05:54.199Z,8.53
2019-05-05T05:08:24.840Z,7.70
2019-05-05T05:10:55.403Z,7.80
2019-05-05T05:13:25.833Z,8.67
2019-05-05T05:15:56.235Z,7.57
2019-05-05T05:18:26.665Z,8.20
2019-05-05T05:20:57.067Z,8.57
2019-05-05T05:23:29.626Z,8.07
2019-05-05T05:25:59.828Z,9.27
2019-05-05T05:28:30.306Z,8.77
2019-05-05T05:31:00.716Z,9.90
2019-05-05T05:33:31.224Z,8.37
2019-05-05T05:36:03.840Z,8.53
2019-05-05T05:38:34.615Z,8.53
2019-05-05T05:41:24.398Z,9.07
2019-05-05T05:44:08.116Z,10.07
2019-05-05T05:46:54.471Z,9.63
2019-05-05T05:49:49.177Z,10.20
2019-05-05T05:52:19.649Z,8.90
2019-05-05T05:54:50.093Z,7.27
2019-05-05T05:57:20.500Z,6.70
2019-05-05T05:59:51.072Z,7.40
2019-05-05T06:02:21.561Z,7.20
2019-05-05T06:04:53.766Z,6.77
2019-05-05T06:07:24.560Z,7.77
2019-05-05T06:09:55.059Z,6.60
2019-05-05T06:12:25.455Z,7.00
2019-05-05T06:14:55.875Z,6.37
2019-05-05T06:17:26.314Z,6.90
2019-05-05T06:19:56.762Z,6.93
2019-05-05T06:22:29.367Z,6.40
2019-05-05T06:24:59.393Z,7.47
2019-05-05T06:27:29.771Z,6.00
2019-05-05T06:30:00.213Z,6.13
2019-05-05T06:32:30.654Z,5.93
2019-05-05T06:35:03.544Z,5.17
2019-05-05T06:37:34.263Z,5.70
2019-05-05T06:40:06.999Z,4.90
2019-05-05T06:42:56.326Z,5.10
2019-05-05T06:45:34.336Z,4.57
2019-05-05T06:48:04.789Z,4.10
2019-05-05T06:50:35.252Z,3.70
2019-05-05T06:53:05.657Z,3.47
2019-05-05T06:55:36.216Z,3.10
2019-05-05T06:58:06.640Z,4.10
2019-05-05T07:00:37.069Z,3.80
2019-05-05T07:03:07.951Z,3.17
2019-05-05T07:05:38.527Z,4.17
2019-05-05T07:08:08.996Z,2.90
2019-05-05T07:10:39.498Z,3.07
2019-05-05T07:13:10.062Z,3.50
2019-05-05T07:15:40.731Z,3.53
2019-05-05T07:18:11.259Z,2.97
2019-05-05T07:20:43.472Z,2.53
2019-05-05T07:23:14.579Z,3.03
2019-05-05T07:25:46.114Z,2.30
2019-05-05T07:28:16.807Z,2.03
2019-05-05T07:30:47.411Z,2.10
2019-05-05T07:33:17.996Z,3.13
2019-05-05T07:36:01.383Z,2.90
2019-05-05T07:38:28.459Z,2.40
2019-05-05T07:40:58.884Z,2.93
2019-05-05T07:43:29.354Z,2.70
2019-05-05T07:45:59.768Z,2.77
2019-05-05T07:48:30.298Z,2.80
2019-05-05T07:51:04.468Z,2.13
2019-05-05T07:53:33.566Z,2.50
2019-05-05T07:56:07.531Z,2.50
2019-05-05T07:58:36.585Z,2.70
2019-05-05T08:01:07.253Z,3.43
2019-05-05T08:03:39.798Z,2.80
2019-05-05T08:06:11.227Z,2.70
2019-05-05T08:08:41.657Z,2.70
2019-05-05T08:11:14.513Z,2.60
2019-05-05T08:13:44.725Z,3.60
2019-05-05T08:16:24.308Z,3.53
2019-05-05T08:19:13.807Z,3.10
2019-05-05T08:21:44.425Z,3.23
2019-05-05T08:24:27.878Z,3.97
2019-05-05T08:27:09.421Z,4.70
2019-05-05T08:29:44.615Z,4.27
2019-05-05T08:32:23.779Z,3.30
2019-05-05T08:35:00.071Z,4.07
2019-05-05T08:37:26.937Z,3.80
2019-05-05T08:39:57.383Z,2.97
2019-05-05T08:42:27.963Z,3.83
2019-05-05T08:44:58.440Z,2.60
2019-05-05T08:47:29.162Z,2.87
2019-05-05T08:49:59.768Z,3.23
2019-05-05T08:52:30.631Z,3.20
2019-05-05T08:55:01.128Z,2.50
2019-05-05T08:57:31.647Z,3.77
2019-05-05T09:00:04.717Z,3.17
2019-05-05T09:02:36.137Z,3.67
2019-05-05T09:05:06.939Z,4.33
2019-05-05T09:07:37.344Z,3.50
2019-05-05T09:10:08.322Z,4.30
2019-05-05T09:12:38.781Z,4.40
2019-05-05T09:15:13.664Z,4.53
2019-05-05T09:17:45.673Z,5.27
2019-05-05T09:20:17.409Z,5.87
2019-05-05T09:22:47.970Z,5.40
2019-05-05T09:25:40.684Z,4.70
2019-05-05T09:28:19.429Z,5.33
2019-05-05T09:30:50.976Z,4.20
2019-05-05T09:33:21.446Z,4.63
2019-05-05T09:35:54.127Z,4.70
2019-05-05T09:38:24.922Z,5.40
2019-05-05T09:40:55.343Z,4.60
2019-05-05T09:43:25.832Z,4.27
2019-05-05T09:45:56.255Z,4.23
2019-05-05T09:48:27.088Z,4.50
2019-05-05T09:50:57.556Z,4.47
2019-05-05T09:53:28.011Z,4.53
2019-05-05T09:55:58.418Z,4.63
2019-05-05T09:58:28.924Z,4.30
2019-05-05T10:00:59.417Z,4.33
2019-05-05T10:03:29.979Z,4.50
2019-05-05T10:06:00.404Z,4.13
2019-05-05T10:08:30.929Z,5.30
2019-05-05T10:11:01.344Z,5.50
2019-05-05T10:13:33.649Z,4.70
2019-05-05T10:16:04.822Z,5.27
2019-05-05T10:18:35.980Z,5.10
2019-05-05T10:21:06.624Z,5.00
2019-05-05T10:23:39.069Z,5.33
2019-05-05T10:26:10.974Z,4.70
2019-05-05T10:28:41.675Z,3.83
2019-05-05T10:31:13.788Z,4.60
2019-05-05T10:33:49.591Z,3.43
2019-05-05T10:36:21.888Z,4.23
2019-05-05T10:38:59.113Z,2.90
2019-05-05T10:41:29.598Z,3.53
2019-05-05T10:44:03.552Z,3.10
2019-05-05T10:46:34.181Z,3.63
2019-05-05T10:49:04.737Z,2.73
2019-05-05T10:51:38.445Z,3.30
2019-05-05T10:54:08.932Z,2.90
2019-05-05T10:56:39.997Z,2.90
2019-05-05T10:59:10.556Z,2.50
2019-05-05T11:01:42.075Z,2.40
2019-05-05T11:04:13.595Z,3.77
2019-05-05T11:06:44.688Z,2.80
2019-05-05T11:09:15.439Z,2.90
2019-05-05T11:11:45.878Z,3.77
2019-05-05T11:14:16.342Z,3.53
2019-05-05T11:16:46.797Z,3.00
2019-05-05T11:19:17.253Z,3.73
2019-05-05T11:21:47.722Z,4.10
2019-05-05T11:24:18.321Z,3.60
2019-05-05T11:26:48.732Z,3.03
2019-05-05T11:29:19.242Z,4.37
2019-05-05T11:31:49.698Z,2.93
2019-05-05T11:34:24.786Z,4.50
2019-05-05T11:37:03.726Z,3.23
2019-05-05T11:39:34.255Z,4.40
2019-05-05T11:42:04.718Z,3.03
2019-05-05T11:44:35.145Z,2.80
2019-05-05T11:47:05.748Z,2.90
2019-05-05T11:49:36.247Z,2.87
2019-05-05T11:52:06.713Z,3.47
2019-05-05T11:54:37.227Z,2.57
2019-05-05T11:57:07.776Z,2.77
2019-05-05T11:59:38.166Z,3.23
2019-05-05T12:02:08.707Z,2.60
2019-05-05T12:04:39.135Z,2.70
2019-05-05T12:07:09.563Z,2.93
2019-05-05T12:09:49.037Z,2.43
2019-05-05T12:12:19.663Z,3.50
2019-05-05T12:14:53.732Z,2.40
2019-05-05T12:17:36.328Z,2.30
2019-05-05T12:20:10.666Z,2.10
2019-05-05T12:22:41.111Z,1.70
2019-05-05T12:25:29.280Z,2.10
2019-05-05T12:28:09.483Z,2.17
2019-05-05T12:30:40.021Z,2.23
2019-05-05T12:33:10.486Z,2.00
2019-05-05T12:35:40.916Z,2.13
2019-05-05T12:38:11.460Z,1.83
2019-05-05T12:40:44.155Z,2.07
2019-05-05T12:43:14.415Z,2.30
2019-05-05T12:45:47.225Z,2.00
2019-05-05T12:48:26.660Z,1.83
2019-05-05T12:50:57.085Z,1.60
2019-05-05T12:53:27.813Z,2.13
2019-05-05T12:55:58.240Z,1.80
2019-05-05T12:58:28.709Z,2.60
2019-05-05T13:01:21.383Z,3.03
2019-05-05T13:03:54.282Z,2.30
2019-05-05T13:06:24.617Z,2.90
2019-05-05T13:08:55.074Z,2.30
2019-05-05T13:11:25.662Z,3.00
2019-05-05T13:13:56.296Z,2.43
2019-05-05T13:16:26.793Z,2.27
2019-05-05T13:18:57.237Z,2.87
2019-05-05T13:21:44.083Z,2.70
2019-05-05T13:24:34.228Z,2.93
2019-05-05T13:27:19.393Z,2.17
2019-05-05T13:29:49.889Z,3.40
2019-05-05T13:32:20.349Z,3.33
2019-05-05T13:34:50.882Z,3.13
2019-05-05T13:37:21.345Z,3.30
2019-05-05T13:39:53.911Z,2.33
2019-05-05T13:42:24.544Z,3.30
2019-05-05T13:45:06.159Z,2.73
2019-05-05T13:47:36.778Z,2.47
2019-05-05T13:50:15.892Z,2.83
2019-05-05T13:52:46.336Z,2.77
2019-05-05T13:55:17.167Z,2.47
2019-05-05T13:57:47.775Z,2.57
2019-05-05T14:00:19.447Z,1.90
2019-05-05T14:02:50.102Z,2.50
2019-05-05T14:05:20.623Z,3.53
2019-05-05T14:07:51.082Z,3.03
2019-05-05T14:10:23.514Z,2.40
2019-05-05T14:12:54.140Z,2.37
2019-05-05T14:15:24.583Z,2.17
2019-05-05T14:17:55.562Z,2.67
2019-05-05T14:20:26.022Z,2.93
2019-05-05T14:22:56.693Z,2.00
2019-05-05T14:25:29.031Z,2.03
2019-05-05T14:27:59.815Z,2.97
2019-05-05T14:30:58.672Z,2.67
2019-05-05T14:33:34.125Z,2.13
2019-05-05T14:36:30.742Z,2.77
2019-05-05T14:39:01.699Z,2.30
2019-05-05T14:41:32.369Z,2.60
2019-05-05T14:44:04.421Z,3.20
2019-05-05T14:46:35.039Z,2.40
2019-05-05T14:49:05.944Z,2.77
2019-05-05T14:51:36.632Z,2.87
2019-05-05T14:54:07.313Z,2.50
2019-05-05T14:56:37.734Z,2.60
2019-05-05T14:59:08.313Z,2.67
2019-05-05T15:01:38.897Z,3.63
2019-05-05T15:04:11.024Z,2.60
2019-05-05T15:06:54.368Z,2.70
2019-05-05T15:09:36.718Z,2.60
2019-05-05T15:12:26.296Z,2.20
2019-05-05T15:14:59.285Z,2.77
2019-05-05T15:17:29.738Z,1.83
2019-05-05T15:20:00.493Z,2.00
2019-05-05T15:22:30.956Z,2.47
2019-05-05T15:25:04.192Z,2.43
2019-05-05T15:27:35.162Z,2.77
2019-05-05T15:30:07.390Z,2.13
2019-05-05T15:32:38.236Z,2.30
2019-05-05T15:35:09.302Z,1.83
2019-05-05T15:37:40.568Z,2.03
2019-05-05T15:40:14.172Z,1.80
2019-05-05T15:42:45.636Z,2.30
2019-05-05T15:45:17.207Z,2.17
2019-05-05T15:47:48.122Z,2.10
2019-05-05T15:50:18.640Z,1.87
2019-05-05T15:52:49.549Z,2.20
2019-05-05T15:55:20.895Z,2.07
2019-05-05T15:57:51.592Z,3.63
2019-05-05T16:00:22.543Z,2.03
2019-05-05T16:02:54.834Z,1.80
2019-05-05T16:05:25.698Z,1.90
2019-05-05T16:07:56.806Z,1.33
2019-05-05T16:10:27.358Z,1.47
2019-05-05T16:12:58.221Z,1.57
2019-05-05T16:15:50.842Z,2.03
2019-05-05T16:18:48.148Z,1.90
2019-05-05T16:21:39.283Z,2.10
2019-05-05T16:24:21.096Z,2.03
2019-05-05T16:26:53.722Z,2.20
2019-05-05T16:29:23.866Z,2.03
2019-05-05T16:31:57.353Z,1.50
2019-05-05T16:34:27.793Z,2.33
2019-05-05T16:36:58.334Z,2.80
2019-05-05T16:39:28.860Z,1.83
2019-05-05T16:42:03.961Z,1.60
2019-05-05T16:44:36.515Z,2.47
2019-05-05T16:47:06.945Z,1.87
2019-05-05T16:49:37.427Z,5.50
2019-05-05T16:52:14.611Z,2.43
2019-05-05T16:55:19.106Z,2.80
2019-05-05T16:57:49.627Z,1.93
2019-05-05T17:00:21.612Z,2.43
2019-05-05T17:02:53.703Z,2.23
2019-05-05T17:05:24.861Z,2.37
2019-05-05T17:07:58.456Z,2.43
2019-05-05T17:10:28.968Z,2.20
2019-05-05T17:13:02.781Z,2.57
2019-05-05T17:15:53.694Z,2.47
2019-05-05T17:18:58.938Z,2.53
2019-05-05T17:21:37.371Z,2.30
2019-05-05T17:24:14.116Z,2.10
2019-05-05T17:26:45.294Z,2.50
2019-05-05T17:29:17.042Z,2.30
2019-05-05T17:31:48.114Z,2.40
2019-05-05T17:34:20.708Z,2.87
2019-05-05T17:36:53.414Z,2.30
2019-05-05T17:39:27.048Z,2.80
2019-05-05T17:42:14.993Z,3.00
2019-05-05T17:45:18.751Z,2.80
2019-05-05T17:48:01.040Z,2.70
2019-05-05T17:50:53.672Z,2.43
2019-05-05T17:53:34.379Z,3.60
2019-05-05T17:56:06.389Z,2.10
2019-05-05T17:58:37.828Z,2.00
2019-05-05T18:01:08.743Z,2.27
2019-05-05T18:03:40.870Z,2.57
2019-05-05T18:06:23.524Z,1.70
2019-05-05T18:09:00.705Z,2.23
2019-05-05T18:11:53.566Z,2.33
2019-05-05T18:14:25.887Z,1.87
2019-05-05T18:16:56.410Z,2.60
2019-05-05T18:19:28.949Z,1.93
2019-05-05T18:21:59.495Z,3.30
2019-05-05T18:24:30.328Z,8.60
2019-05-05T18:27:00.969Z,4.57
2019-05-05T18:29:31.370Z,2.90
2019-05-05T18:32:04.327Z,1.90
2019-05-05T18:34:36.062Z,2.23
2019-05-05T18:37:06.576Z,1.97
2019-05-05T18:39:37.000Z,2.20
2019-05-05T18:42:17.650Z,2.43
2019-05-05T18:44:54.053Z,2.10
2019-05-05T18:47:25.283Z,2.27
2019-05-05T18:49:55.825Z,2.40
2019-05-05T18:52:26.512Z,2.10
2019-05-05T18:54:56.989Z,2.03
2019-05-05T18:57:27.509Z,2.60
2019-05-05T18:59:58.000Z,2.60
2019-05-05T19:02:46.170Z,2.40
2019-05-05T19:05:25.735Z,2.13
2019-05-05T19:08:04.613Z,2.43
2019-05-05T19:10:35.272Z,2.50
2019-05-05T19:13:05.698Z,2.90
2019-05-05T19:15:36.740Z,2.30
2019-05-05T19:18:07.448Z,2.80
2019-05-05T19:20:56.879Z,2.80
2019-05-05T19:23:27.313Z,3.10
2019-05-05T19:25:57.834Z,2.50
2019-05-05T19:28:41.195Z,2.83
2019-05-05T19:31:00.576Z,3.07
2019-05-05T19:33:31.013Z,2.77
2019-05-05T19:36:01.528Z,2.27
2019-05-05T19:38:34.380Z,2.47
2019-05-05T19:41:04.273Z,3.47
2019-05-05T19:43:36.865Z,3.10
2019-05-05T19:46:09.481Z,2.90
2019-05-05T19:48:39.914Z,2.30
2019-05-05T19:51:14.168Z,2.73
2019-05-05T19:53:44.848Z,3.60
2019-05-05T19:56:15.482Z,2.23
2019-05-05T19:58:58.306Z,2.80
2019-05-05T20:01:32.137Z,2.20
2019-05-05T20:03:51.200Z,2.60
2019-05-05T20:06:23.706Z,2.53
2019-05-05T20:08:54.065Z,3.07
2019-05-05T20:11:24.823Z,2.80
2019-05-05T20:14:06.605Z,2.20
2019-05-05T20:16:39.279Z,1.90
2019-05-05T20:19:09.744Z,2.43
2019-05-05T20:21:41.149Z,2.37
2019-05-05T20:24:11.579Z,4.70
2019-05-05T20:26:42.012Z,2.57
2019-05-05T20:29:14.927Z,3.50
2019-05-05T20:31:44.745Z,2.90
2019-05-05T20:34:37.121Z,3.50
2019-05-05T20:37:09.203Z,2.70
2019-05-05T20:39:39.954Z,3.00
2019-05-05T20:42:10.401Z,3.27
2019-05-05T20:44:40.862Z,3.00
2019-05-05T20:47:11.488Z,3.03
2019-05-05T20:49:44.243Z,3.20
2019-05-05T20:52:14.411Z,3.27
2019-05-05T20:54:44.981Z,3.33
2019-05-05T20:57:15.520Z,4.57
2019-05-05T20:59:48.252Z,3.70
2019-05-05T21:02:18.242Z,2.50
2019-05-05T21:04:49.554Z,2.33
2019-05-05T21:07:23.138Z,4.30
2019-05-05T21:09:52.193Z,2.63
2019-05-05T21:12:24.571Z,2.77
2019-05-05T21:14:54.737Z,2.93
2019-05-05T21:17:25.355Z,3.07
2019-05-05T21:19:55.811Z,2.73
2019-05-05T21:22:30.814Z,3.00
2019-05-05T21:25:01.321Z,3.30
2019-05-05T21:27:34.037Z,3.40
2019-05-05T21:30:04.635Z,2.97
2019-05-05T21:32:35.089Z,2.80
2019-05-05T21:35:05.818Z,3.00
2019-05-05T21:37:36.244Z,3.03
2019-05-05T21:40:07.295Z,3.20
2019-05-05T21:42:37.711Z,3.40
2019-05-05T21:45:08.175Z,2.30
2019-05-05T21:47:39.526Z,2.87
2019-05-05T21:50:11.659Z,3.07
2019-05-05T21:52:50.312Z,3.07
2019-05-05T21:55:38.416Z,3.10
2019-05-05T21:58:18.146Z,2.90
2019-05-05T22:01:06.551Z,2.80
2019-05-05T22:03:38.044Z,3.20
2019-05-05T22:06:08.470Z,3.13
2019-05-05T22:08:38.885Z,3.47
2019-05-05T22:11:09.340Z,3.73
2019-05-05T22:13:39.720Z,3.23
2019-05-05T22:16:10.267Z,3.97
2019-05-05T22:18:40.679Z,3.93
2019-05-05T22:21:17.317Z,3.40
2019-05-05T22:24:06.615Z,3.47
2019-05-05T22:26:37.093Z,3.03
2019-05-05T22:29:07.811Z,3.40
2019-05-05T22:31:38.315Z,2.83
2019-05-05T22:34:08.726Z,3.43
2019-05-05T22:36:39.194Z,3.57
2019-05-05T22:39:11.054Z,4.30
2019-05-05T22:41:41.500Z,3.73
2019-05-05T22:44:13.927Z,3.23
2019-05-05T22:46:44.074Z,4.13
2019-05-05T22:49:14.806Z,3.23
2019-05-05T22:51:45.257Z,3.60
2019-05-05T22:54:15.668Z,2.77
2019-05-05T22:56:46.337Z,3.40
2019-05-05T22:59:16.717Z,3.07
2019-05-05T23:01:47.163Z,3.00
2019-05-05T23:04:34.775Z,4.00
2019-05-05T23:07:08.541Z,3.10
2019-05-05T23:09:39.283Z,2.97
2019-05-05T23:12:09.720Z,3.50
2019-05-05T23:14:40.352Z,3.80
2019-05-05T23:17:29.536Z,3.57
2019-05-05T23:20:16.365Z,3.23
2019-05-05T23:23:04.735Z,3.37
2019-05-05T23:25:38.509Z,3.30
2019-05-05T23:28:08.964Z,4.13
2019-05-05T23:30:41.972Z,3.97
2019-05-05T23:33:11.835Z,3.90
2019-05-05T23:35:43.712Z,4.10
2019-05-05T23:38:14.442Z,4.10
2019-05-05T23:40:44.891Z,3.67
2019-05-05T23:43:15.291Z,4.07
2019-05-05T23:45:45.734Z,3.90
2019-05-05T23:48:16.128Z,3.40
2019-05-05T23:50:46.695Z,4.13
2019-05-05T23:53:17.071Z,3.57
2019-05-05T23:55:47.505Z,3.97
2019-05-05T23:58:17.903Z,3.10
